Time;durP1;ratioP1;P1;durP2;ratioP2;P2;SDS_P1;SDS_P2;PMS_P1;PMS_P2;Temp;Humidity;BMP_temperature;BMP_pressure;BME280_temperature;BME280_humidity;BME280_pressure;Samples;Min_cycle;Max_cycle;Signal;HPM_P1;HPM_P2
2022/05/21 00:01:20;;;;;;;12.35;4.88;;;10.10;99.90;;;;;;4985191;28;20409;-41
2022/05/21 00:03:46;;;;;;;6.43;4.50;;;10.10;99.90;;;;;;4982437;28;20056;-41
2022/05/21 00:06:11;;;;;;;9.85;4.57;;;10.10;99.90;;;;;;4980298;28;20058;-41
2022/05/21 00:08:37;;;;;;;12.98;4.90;;;10.10;99.90;;;;;;4981676;28;20085;-41
2022/05/21 00:11:03;;;;;;;8.63;4.53;;;10.10;99.90;;;;;;4991280;28;20085;-41
2022/05/21 00:13:29;;;;;;;13.98;4.90;;;10.10;99.90;;;;;;4982991;28;20038;-41
2022/05/21 00:15:55;;;;;;;9.80;4.95;;;10.00;99.90;;;;;;4985834;28;20089;-41
2022/05/21 00:18:21;;;;;;;12.30;5.13;;;10.10;99.90;;;;;;4966160;28;20067;-41
2022/05/21 00:20:47;;;;;;;10.35;4.68;;;10.10;99.90;;;;;;4989788;28;20038;-41
2022/05/21 00:23:14;;;;;;;12.07;5.35;;;10.10;99.90;;;;;;4990145;28;20521;-41
2022/05/21 00:25:42;;;;;;;10.13;5.22;;;10.10;99.90;;;;;;4991471;28;20046;-41
2022/05/21 00:28:08;;;;;;;11.73;5.30;;;10.10;99.90;;;;;;4973061;28;20050;-41
2022/05/21 00:30:34;;;;;;;11.65;5.63;;;10.10;99.90;;;;;;4990471;28;20426;-41
2022/05/21 00:33:00;;;;;;;13.85;5.70;;;10.10;99.90;;;;;;4988905;28;20038;-41
2022/05/21 00:35:27;;;;;;;15.55;6.22;;;10.10;99.90;;;;;;4991210;28;20153;-41
2022/05/21 00:37:52;;;;;;;15.75;7.13;;;10.10;99.90;;;;;;4972561;28;20070;-41
2022/05/21 00:40:18;;;;;;;13.48;7.00;;;10.10;99.90;;;;;;4989724;28;20093;-41
2022/05/21 00:42:45;;;;;;;15.15;8.10;;;10.10;99.90;;;;;;4988964;28;20051;-41
2022/05/21 00:45:12;;;;;;;14.45;7.43;;;10.20;99.90;;;;;;4991031;28;20050;-41
2022/05/21 00:47:38;;;;;;;19.10;8.50;;;10.20;99.90;;;;;;4970415;28;20049;-42
2022/05/21 00:50:06;;;;;;;18.45;9.85;;;10.20;99.90;;;;;;4988132;28;20050;-41
2022/05/21 00:52:35;;;;;;;16.98;10.32;;;10.20;99.90;;;;;;4989047;28;20132;-41
2022/05/21 00:55:08;;;;;;;26.90;10.80;;;10.20;99.90;;;;;;4990749;28;20701;-41
2022/05/21 00:57:40;;;;;;;19.15;10.90;;;10.30;99.90;;;;;;4972119;28;20413;-41
2022/05/21 01:00:10;;;;;;;21.73;11.70;;;10.30;99.90;;;;;;4990394;28;20093;-41
2022/05/21 01:02:49;;;;;;;26.85;13.23;;;10.30;99.90;;;;;;4985198;28;20383;-42
2022/05/21 01:05:18;;;;;;;28.85;14.80;;;10.30;99.90;;;;;;4989938;28;20065;-41
2022/05/21 01:07:46;;;;;;;24.77;13.95;;;10.50;99.90;;;;;;4974187;28;20104;-41
2022/05/21 01:10:15;;;;;;;31.35;15.27;;;10.50;99.90;;;;;;4990677;28;20050;-41
2022/05/21 01:12:45;;;;;;;26.48;15.45;;;10.60;99.90;;;;;;4989346;28;20042;-41
2022/05/21 01:15:16;;;;;;;35.25;16.77;;;10.60;99.90;;;;;;4987157;28;20051;-41
2022/05/21 01:17:42;;;;;;;32.38;17.48;;;10.60;99.90;;;;;;4974174;28;20039;-41
2022/05/21 01:20:13;;;;;;;43.50;18.83;;;10.60;99.90;;;;;;4989134;28;20050;-41
2022/05/21 01:22:57;;;;;;;32.10;18.00;;;10.70;99.90;;;;;;4988863;28;20046;-41
2022/05/21 01:25:25;;;;;;;34.50;18.58;;;10.70;99.90;;;;;;4986484;28;20057;-41
2022/05/21 01:27:53;;;;;;;27.90;16.65;;;10.60;99.90;;;;;;4970640;28;20121;-41
2022/05/21 01:30:33;;;;;;;30.77;17.83;;;10.90;99.90;;;;;;4988925;28;20050;-41
2022/05/21 01:33:02;;;;;;;35.10;18.02;;;10.80;99.90;;;;;;4988000;28;20036;-41
2022/05/21 01:35:28;;;;;;;29.02;16.70;;;10.80;99.90;;;;;;4989954;28;20379;-41
2022/05/21 01:37:53;;;;;;;29.77;17.38;;;10.80;99.90;;;;;;4972836;28;20042;-41
2022/05/21 01:40:19;;;;;;;31.45;17.30;;;10.80;99.90;;;;;;4988852;28;20073;-41
2022/05/21 01:44:37;;;;;;;33.42;18.17;;;10.90;99.90;;;;;;4989145;28;20049;-41
2022/05/21 01:45:31;;;;;;;35.22;18.48;;;10.90;99.90;;;;;;4986874;28;20093;-41
2022/05/21 01:47:56;;;;;;;31.98;18.48;;;10.90;99.90;;;;;;4972598;28;20070;-41
2022/05/21 01:50:22;;;;;;;40.17;20.40;;;11.00;99.90;;;;;;4989045;28;20122;-41
2022/05/21 01:52:48;;;;;;;32.22;18.88;;;11.00;99.90;;;;;;4989065;28;20180;-41
2022/05/21 01:55:13;;;;;;;34.15;19.83;;;11.00;99.90;;;;;;4989752;28;20093;-40
2022/05/21 01:57:39;;;;;;;39.85;21.10;;;11.00;99.90;;;;;;4972819;28;20652;-41
2022/05/21 02:00:05;;;;;;;34.17;20.20;;;10.90;99.90;;;;;;4988807;28;20053;-41
2022/05/21 02:02:33;;;;;;;37.00;22.50;;;11.10;99.90;;;;;;4987774;28;20066;-41
2022/05/21 02:04:59;;;;;;;35.50;22.23;;;11.20;99.90;;;;;;4988997;28;20098;-41
2022/05/21 02:07:24;;;;;;;37.42;22.08;;;11.20;99.90;;;;;;4973448;28;20066;-41
2022/05/21 02:09:50;;;;;;;42.95;23.30;;;11.20;99.90;;;;;;4989228;28;20041;-41
2022/05/21 02:12:16;;;;;;;36.22;20.92;;;11.30;99.90;;;;;;4985073;28;20482;-41
2022/05/21 02:14:43;;;;;;;42.85;22.98;;;11.30;99.90;;;;;;4983468;28;20034;-41
2022/05/21 02:17:09;;;;;;;37.65;22.48;;;11.40;99.90;;;;;;4969381;28;20054;-41
2022/05/21 02:19:35;;;;;;;40.45;23.15;;;11.40;99.90;;;;;;4988700;28;20108;-41
2022/05/21 02:22:00;;;;;;;41.72;21.10;;;11.40;99.90;;;;;;4986598;28;20057;-41
2022/05/21 02:24:26;;;;;;;43.97;23.08;;;11.50;99.90;;;;;;4987184;28;20054;-41
2022/05/21 02:26:52;;;;;;;35.88;21.15;;;11.50;99.90;;;;;;4973553;28;20050;-41
2022/05/21 02:29:18;;;;;;;39.90;20.60;;;11.60;99.90;;;;;;4987938;28;20046;-41
2022/05/21 02:31:44;;;;;;;46.58;20.30;;;11.70;99.90;;;;;;4987118;28;20062;-41
2022/05/21 02:34:10;;;;;;;48.42;20.33;;;11.70;99.90;;;;;;4988094;28;20058;-41
2022/05/21 02:39:28;;;;;;;42.95;17.73;;;11.90;99.90;;;;;;4986214;28;20068;-41
2022/05/21 02:41:56;;;;;;;34.60;18.30;;;12.00;99.90;;;;;;4987640;28;20513;-41
2022/05/21 02:44:21;;;;;;;37.30;16.83;;;12.10;99.90;;;;;;4986560;28;20122;-41
2022/05/21 02:46:47;;;;;;;40.80;16.30;;;12.20;99.90;;;;;;4973746;28;20121;-41
2022/05/21 02:49:13;;;;;;;32.03;14.25;;;12.20;99.90;;;;;;4987497;28;20082;-41
2022/05/21 02:51:39;;;;;;;33.50;13.77;;;12.20;99.90;;;;;;5002881;28;20050;-41
2022/05/21 02:54:06;;;;;;;31.05;13.02;;;12.30;99.90;;;;;;4987998;28;20061;-41
2022/05/21 02:56:35;;;;;;;36.88;13.05;;;12.30;99.90;;;;;;4975233;28;20082;-41
2022/05/21 02:59:01;;;;;;;30.20;11.73;;;12.40;99.90;;;;;;4982477;28;20560;-41
2022/05/21 03:01:26;;;;;;;29.65;11.43;;;12.40;99.90;;;;;;4984495;28;20052;-41
2022/05/21 03:03:52;;;;;;;28.05;10.68;;;12.30;99.90;;;;;;4985534;28;20050;-41
2022/05/21 03:06:18;;;;;;;32.17;11.02;;;12.50;99.90;;;;;;4978671;28;20136;-41
2022/05/21 03:11:28;;;;;;;28.83;8.63;;;12.50;99.90;;;;;;4988002;28;20117;-41
2022/05/21 03:13:53;;;;;;;25.67;8.35;;;12.60;99.90;;;;;;4985139;28;20051;-41
2022/05/21 03:16:19;;;;;;;33.85;9.60;;;12.60;99.90;;;;;;4975910;28;20050;-41
2022/05/21 03:18:45;;;;;;;28.23;8.23;;;12.60;99.90;;;;;;4982529;28;20054;-41
2022/05/21 03:21:12;;;;;;;27.55;8.85;;;12.60;99.90;;;;;;4987902;28;20046;-41
2022/05/21 03:23:38;;;;;;;33.22;8.25;;;12.60;99.90;;;;;;4985973;28;20050;-41
2022/05/21 03:26:03;;;;;;;31.50;7.88;;;12.70;99.90;;;;;;4987439;28;20141;-41
2022/05/21 03:28:29;;;;;;;28.02;7.28;;;12.70;99.90;;;;;;4972142;28;20133;-41
2022/05/21 03:30:55;;;;;;;26.02;7.07;;;12.70;99.90;;;;;;4987685;28;20117;-41
2022/05/21 03:33:20;;;;;;;23.35;6.57;;;12.70;99.90;;;;;;4986975;28;20491;-41
2022/05/21 03:35:47;;;;;;;24.63;6.68;;;12.70;99.90;;;;;;4988086;28;20478;-41
2022/05/21 03:38:12;;;;;;;27.58;6.00;;;12.80;99.90;;;;;;4970181;28;20043;-41
2022/05/21 03:40:38;;;;;;;25.48;6.43;;;12.90;99.90;;;;;;4985699;28;20126;-41
2022/05/21 03:43:04;;;;;;;30.02;6.85;;;12.80;99.90;;;;;;4987521;28;20395;-41
2022/05/21 03:45:30;;;;;;;25.50;6.35;;;12.80;99.90;;;;;;4991885;28;20060;-41
2022/05/21 03:47:56;;;;;;;26.05;7.03;;;12.90;99.90;;;;;;4976053;28;20494;-41
2022/05/21 03:50:25;;;;;;;30.98;6.80;;;12.90;99.90;;;;;;4991087;28;20113;-41
2022/05/21 03:52:51;;;;;;;19.77;6.13;;;13.00;99.90;;;;;;4987872;28;20117;-41
2022/05/21 03:55:17;;;;;;;17.00;5.68;;;13.00;99.90;;;;;;4992024;28;20117;-41
2022/05/21 03:57:43;;;;;;;19.90;5.80;;;13.00;99.90;;;;;;4974862;28;20072;-41
2022/05/21 04:00:12;;;;;;;22.95;6.22;;;13.00;99.90;;;;;;4990570;28;20521;-41
2022/05/21 04:02:38;;;;;;;19.92;6.18;;;13.00;99.90;;;;;;4985132;28;20053;-41
2022/05/21 04:05:06;;;;;;;22.20;5.63;;;13.00;99.90;;;;;;4991122;28;20054;-41
2022/05/21 04:07:32;;;;;;;20.83;6.13;;;13.00;99.90;;;;;;4972617;28;20054;-42
2022/05/21 04:09:58;;;;;;;23.48;5.68;;;13.00;99.90;;;;;;4983582;28;20046;-41
2022/05/21 04:12:23;;;;;;;21.52;5.68;;;13.00;99.90;;;;;;4984807;28;20509;-41
2022/05/21 04:14:49;;;;;;;17.88;4.80;;;13.00;99.90;;;;;;4988059;28;20457;-41
2022/05/21 04:17:16;;;;;;;22.10;4.88;;;13.10;99.90;;;;;;4975349;28;21386;-41
2022/05/21 04:19:42;;;;;;;21.48;4.78;;;13.10;99.90;;;;;;4989632;28;20085;-41
2022/05/21 04:22:09;;;;;;;17.15;4.93;;;13.10;99.90;;;;;;4989841;28;20034;-41
2022/05/21 04:24:34;;;;;;;18.77;4.70;;;13.00;99.90;;;;;;4990298;28;20058;-41
2022/05/21 04:27:00;;;;;;;17.92;4.90;;;13.10;99.90;;;;;;4975706;28;20034;-41
2022/05/21 04:29:26;;;;;;;22.30;4.57;;;13.00;99.90;;;;;;4990096;28;20046;-41
2022/05/21 04:31:52;;;;;;;15.95;4.30;;;13.00;99.90;;;;;;4990462;28;20058;-41
2022/05/21 04:34:18;;;;;;;21.17;4.45;;;13.00;99.90;;;;;;4988506;28;20061;-40
2022/05/21 04:36:43;;;;;;;17.42;4.53;;;13.00;99.90;;;;;;4977858;28;20072;-41
2022/05/21 04:39:09;;;;;;;19.33;4.07;;;13.00;99.90;;;;;;4989941;28;20042;-41
2022/05/21 04:41:35;;;;;;;12.95;3.65;;;13.00;99.90;;;;;;4990514;28;20053;-41
2022/05/21 04:44:02;;;;;;;15.95;3.97;;;13.10;99.90;;;;;;4989739;28;20096;-41
2022/05/21 04:46:28;;;;;;;14.38;4.00;;;13.00;99.90;;;;;;4977388;28;20490;-41
2022/05/21 04:48:54;;;;;;;16.23;3.88;;;13.00;99.90;;;;;;4987126;28;20117;-41
2022/05/21 04:51:20;;;;;;;16.02;4.13;;;13.00;99.90;;;;;;4990034;28;20081;-41
2022/05/21 04:53:46;;;;;;;20.15;4.13;;;13.00;99.90;;;;;;4988307;28;20100;-41
2022/05/21 04:56:12;;;;;;;15.68;4.00;;;13.00;99.90;;;;;;4982595;28;20054;-41
2022/05/21 04:58:37;;;;;;;15.57;3.55;;;13.00;99.90;;;;;;4977577;28;20045;-41
2022/05/21 05:01:04;;;;;;;19.55;4.53;;;13.00;99.90;;;;;;4989703;28;20051;-41
2022/05/21 05:03:30;;;;;;;13.55;4.10;;;13.00;99.90;;;;;;4988964;28;20165;-41
2022/05/21 05:05:56;;;;;;;15.55;3.95;;;13.00;99.90;;;;;;4990318;28;20061;-41
2022/05/21 05:08:22;;;;;;;16.27;3.72;;;13.00;99.90;;;;;;4974584;28;20125;-41
2022/05/21 05:10:49;;;;;;;15.77;3.70;;;13.00;99.90;;;;;;4972052;28;20129;-41
2022/05/21 05:13:16;;;;;;;15.48;3.85;;;13.10;99.90;;;;;;4989593;28;20486;-41
2022/05/21 05:15:49;;;;;;;17.98;4.18;;;13.10;99.90;;;;;;4989622;28;20505;-41
2022/05/21 05:18:21;;;;;;;16.48;3.42;;;13.10;99.90;;;;;;4974374;28;20042;-41
2022/05/21 05:20:47;;;;;;;18.20;3.95;;;13.10;99.90;;;;;;4989513;28;20476;-41
2022/05/21 05:23:13;;;;;;;15.68;3.92;;;13.10;99.90;;;;;;4989633;28;20046;-41
2022/05/21 05:25:40;;;;;;;13.77;3.72;;;13.10;99.90;;;;;;4989873;28;20125;-41
2022/05/21 05:28:17;;;;;;;16.65;3.47;;;13.20;99.90;;;;;;4972436;28;20422;-41
2022/05/21 05:30:42;;;;;;;13.50;4.00;;;13.20;99.90;;;;;;4988044;28;20161;-41
2022/05/21 05:33:09;;;;;;;13.20;3.70;;;13.20;99.90;;;;;;4971500;28;20133;-41
2022/05/21 05:35:35;;;;;;;14.43;3.55;;;13.20;99.90;;;;;;4990068;28;20096;-41
2022/05/21 05:38:06;;;;;;;18.05;3.25;;;13.20;99.90;;;;;;4970662;28;20031;-41
2022/05/21 05:40:33;;;;;;;19.10;3.42;;;13.20;99.90;;;;;;4989034;28;20124;-41
2022/05/21 05:43:01;;;;;;;13.50;3.30;;;13.20;99.90;;;;;;4987528;28;20069;-41
2022/05/21 05:45:27;;;;;;;13.80;3.60;;;13.30;99.90;;;;;;4989745;28;20087;-41
2022/05/21 05:47:53;;;;;;;15.30;3.95;;;13.30;99.90;;;;;;4972603;28;20042;-41
2022/05/21 05:50:19;;;;;;;16.48;3.67;;;13.30;99.90;;;;;;4987205;28;20129;-41
2022/05/21 05:52:45;;;;;;;17.95;3.53;;;13.30;99.90;;;;;;4989198;28;20169;-41
2022/05/21 05:55:11;;;;;;;14.85;3.20;;;13.30;99.90;;;;;;4989404;28;20969;-41
2022/05/21 05:57:37;;;;;;;15.00;3.72;;;13.30;99.90;;;;;;4967648;28;20050;-41
2022/05/21 06:00:05;;;;;;;15.95;3.63;;;13.40;99.90;;;;;;4989094;28;20038;-41
2022/05/21 06:05:18;;;;;;;15.63;3.92;;;13.40;99.90;;;;;;4989030;28;20620;-41
2022/05/21 06:07:50;;;;;;;15.98;3.67;;;13.50;99.90;;;;;;4969003;28;20099;-41
2022/05/21 06:10:18;;;;;;;13.98;3.63;;;13.50;99.90;;;;;;4983163;28;20042;-41
2022/05/21 06:12:44;;;;;;;12.95;3.53;;;13.50;99.90;;;;;;4988209;28;20053;-42
2022/05/21 06:15:11;;;;;;;22.80;4.05;;;13.60;99.90;;;;;;4987117;28;20075;-41
2022/05/21 06:17:38;;;;;;;13.18;3.20;;;13.60;99.90;;;;;;4973436;28;20181;-42
2022/05/21 06:20:06;;;;;;;19.85;3.78;;;13.70;99.90;;;;;;4989063;28;21025;-41
2022/05/21 06:22:32;;;;;;;15.15;4.25;;;13.80;99.90;;;;;;4988196;28;20053;-44
2022/05/21 06:24:59;;;;;;;13.02;4.18;;;13.80;99.90;;;;;;4989193;28;20066;-43
2022/05/21 06:27:24;;;;;;;14.85;3.20;;;13.90;99.90;;;;;;4973066;28;20053;-41
2022/05/21 06:29:50;;;;;;;11.70;2.92;;;14.00;99.90;;;;;;4988497;28;20042;-42
2022/05/21 06:32:16;;;;;;;17.17;3.40;;;13.90;99.90;;;;;;4986008;28;20054;-42
2022/05/21 06:34:41;;;;;;;15.73;3.78;;;14.00;99.90;;;;;;4989394;28;20047;-41
2022/05/21 06:37:11;;;;;;;14.63;3.33;;;14.00;99.90;;;;;;4973715;28;20052;-41
2022/05/21 06:39:38;;;;;;;16.65;3.42;;;14.00;99.90;;;;;;4987920;28;20049;-41
2022/05/21 06:42:04;;;;;;;14.07;3.70;;;14.00;99.90;;;;;;4987262;28;20073;-41
2022/05/21 06:44:30;;;;;;;16.13;3.78;;;14.00;99.90;;;;;;4986885;28;20140;-41
2022/05/21 06:46:57;;;;;;;20.13;3.70;;;14.10;99.90;;;;;;4973887;28;20046;-41
2022/05/21 06:49:26;;;;;;;14.75;3.63;;;14.10;99.90;;;;;;4987553;28;20058;-41
2022/05/21 06:51:53;;;;;;;13.82;3.25;;;14.10;99.90;;;;;;4986584;28;20125;-41
2022/05/21 06:54:19;;;;;;;14.25;3.72;;;14.10;99.90;;;;;;4987528;28;20101;-41
2022/05/21 06:56:45;;;;;;;20.98;4.35;;;14.10;99.90;;;;;;4973048;28;20078;-41
2022/05/21 06:59:11;;;;;;;12.43;3.28;;;14.20;99.90;;;;;;4985056;28;20124;-41
2022/05/21 07:01:36;;;;;;;14.40;3.35;;;14.20;99.90;;;;;;4986309;28;20054;-41
2022/05/21 07:04:02;;;;;;;13.15;3.13;;;14.20;99.90;;;;;;4987009;28;20062;-42
2022/05/21 07:09:12;;;;;;;12.48;3.33;;;14.30;99.90;;;;;;4984898;28;20141;-41
2022/05/21 07:11:39;;;;;;;17.73;4.10;;;14.30;99.90;;;;;;4986183;28;20093;-41
2022/05/21 07:14:05;;;;;;;15.13;3.72;;;14.30;99.90;;;;;;4986957;28;20042;-41
2022/05/21 07:16:31;;;;;;;18.05;4.38;;;14.40;99.90;;;;;;4974942;28;20366;-41
2022/05/21 07:18:56;;;;;;;16.25;3.17;;;14.40;99.90;;;;;;4984447;28;20050;-41
2022/05/21 07:21:23;;;;;;;19.00;3.28;;;14.40;99.90;;;;;;4967534;28;20062;-41
2022/05/21 07:23:49;;;;;;;19.10;3.60;;;14.40;99.90;;;;;;4987201;28;20050;-41
2022/05/21 07:26:17;;;;;;;16.75;3.92;;;14.50;99.90;;;;;;4977219;28;20110;-41
2022/05/21 07:28:43;;;;;;;16.48;3.72;;;14.50;99.90;;;;;;4982292;28;20482;-41
2022/05/21 07:31:09;;;;;;;15.10;3.33;;;14.50;99.90;;;;;;4987032;28;20057;-41
2022/05/21 07:33:35;;;;;;;16.00;3.28;;;14.50;99.90;;;;;;4987505;28;20481;-41
2022/05/21 07:36:00;;;;;;;18.75;4.15;;;14.50;99.90;;;;;;4987781;28;20046;-41
2022/05/21 07:38:26;;;;;;;13.63;3.53;;;14.60;99.90;;;;;;4973221;28;20558;-41
2022/05/21 07:40:53;;;;;;;12.20;2.95;;;14.60;99.90;;;;;;4986838;28;20101;-41
2022/05/21 07:43:27;;;;;;;12.38;3.42;;;14.60;99.90;;;;;;4985617;28;20043;-41
2022/05/21 07:45:54;;;;;;;14.93;3.63;;;14.70;99.90;;;;;;4984774;28;20081;-41
2022/05/21 07:48:21;;;;;;;15.98;3.25;;;14.60;99.90;;;;;;4971868;28;20047;-41
2022/05/21 07:50:58;;;;;;;16.35;3.63;;;14.70;99.90;;;;;;4987145;28;20051;-41
2022/05/21 07:53:32;;;;;;;15.90;3.63;;;14.70;99.90;;;;;;4987503;28;20054;-41
2022/05/21 07:55:58;;;;;;;13.55;2.80;;;14.70;99.90;;;;;;4987962;28;20070;-42
2022/05/21 07:58:27;;;;;;;15.88;3.17;;;14.70;99.90;;;;;;4969980;28;20498;-41
2022/05/21 08:00:53;;;;;;;14.63;3.08;;;14.80;99.90;;;;;;4987209;28;20078;-41
2022/05/21 08:03:19;;;;;;;14.07;3.47;;;14.80;99.90;;;;;;4985800;28;20086;-41
2022/05/21 08:05:45;;;;;;;10.32;3.10;;;14.80;99.90;;;;;;4986419;28;20058;-41
2022/05/21 08:08:12;;;;;;;12.98;2.97;;;14.90;99.90;;;;;;4967749;28;20145;-41
2022/05/21 08:10:41;;;;;;;10.00;2.78;;;14.90;99.90;;;;;;4987326;28;20142;-41
2022/05/21 08:13:06;;;;;;;12.07;2.75;;;14.90;99.90;;;;;;4986595;28;20141;-41
2022/05/21 08:15:33;;;;;;;14.35;3.15;;;14.90;99.90;;;;;;4986899;28;20142;-41
2022/05/21 08:18:00;;;;;;;13.63;3.05;;;15.00;99.90;;;;;;4966461;28;20044;-41
2022/05/21 08:20:27;;;;;;;13.18;2.92;;;14.90;99.90;;;;;;4987197;28;20060;-42
2022/05/21 08:28:22;;;;;;;17.15;3.17;;;15.10;99.90;;;;;;4969694;28;20460;-41
2022/05/21 08:30:48;;;;;;;11.38;3.13;;;15.00;99.90;;;;;;4990000;28;20141;-41
2022/05/21 08:33:17;;;;;;;13.52;3.00;;;15.00;99.90;;;;;;4987607;28;20406;-41
2022/05/21 08:35:43;;;;;;;13.60;2.78;;;15.10;99.90;;;;;;4990841;28;20058;-42
2022/05/21 08:38:11;;;;;;;14.65;2.85;;;15.10;99.90;;;;;;4973689;28;20043;-42
2022/05/21 08:40:59;;;;;;;15.88;3.25;;;15.00;99.90;;;;;;4990730;28;20046;-41
2022/05/21 08:43:40;;;;;;;14.68;3.10;;;15.00;99.90;;;;;;4989744;28;20112;-41
2022/05/21 08:46:09;;;;;;;14.40;3.08;;;15.00;99.90;;;;;;4984849;28;20529;-41
2022/05/21 08:48:39;;;;;;;13.27;3.15;;;15.10;99.90;;;;;;4980502;28;20089;-41
2022/05/21 08:51:12;;;;;;;11.30;2.90;;;15.10;99.90;;;;;;4988707;28;20042;-41
2022/05/21 08:53:47;;;;;;;11.23;2.40;;;15.20;99.90;;;;;;4989009;28;20046;-41
2022/05/21 08:56:13;;;;;;;15.60;2.92;;;15.20;99.90;;;;;;4980369;28;20050;-41
2022/05/21 08:59:03;;;;;;;13.77;3.05;;;15.10;99.90;;;;;;4980663;28;20587;-41
2022/05/21 09:01:30;;;;;;;14.48;2.78;;;15.10;99.90;;;;;;4987195;28;20207;-41
2022/05/21 09:03:57;;;;;;;14.30;3.30;;;15.10;99.90;;;;;;4987434;28;20410;-41
2022/05/21 09:06:38;;;;;;;9.70;2.33;;;15.10;99.90;;;;;;4973644;28;20406;-42
2022/05/21 09:09:13;;;;;;;12.07;2.65;;;15.20;99.90;;;;;;4986917;28;20054;-41
2022/05/21 09:11:49;;;;;;;9.27;2.83;;;15.10;99.90;;;;;;4987847;28;20082;-41
2022/05/21 09:14:35;;;;;;;12.27;2.88;;;15.20;99.90;;;;;;4986688;28;20048;-42
2022/05/21 09:17:02;;;;;;;12.45;3.30;;;15.20;99.90;;;;;;4972156;28;20607;-41
2022/05/21 09:19:34;;;;;;;11.85;3.00;;;15.20;99.90;;;;;;4986769;28;20044;-42
2022/05/21 09:22:04;;;;;;;9.77;2.60;;;15.20;99.90;;;;;;4986756;28;20046;-41
2022/05/21 09:24:51;;;;;;;11.77;2.33;;;15.20;99.90;;;;;;4986252;28;20077;-41
2022/05/21 09:27:31;;;;;;;14.90;2.80;;;15.20;99.90;;;;;;4971455;28;20141;-41
2022/05/21 09:30:28;;;;;;;12.65;2.50;;;15.30;99.90;;;;;;4985874;28;20525;-41
2022/05/21 09:33:25;;;;;;;8.57;2.38;;;15.30;99.90;;;;;;4987272;28;20156;-41
2022/05/21 09:35:59;;;;;;;12.85;2.30;;;15.40;99.90;;;;;;4990704;28;20062;-41
2022/05/21 09:38:31;;;;;;;9.55;2.05;;;15.40;99.90;;;;;;4973662;28;20042;-42
2022/05/21 09:41:27;;;;;;;12.50;2.03;;;15.40;99.90;;;;;;4987227;28;20046;-41
2022/05/21 09:47:13;;;;;;;8.45;2.15;;;15.40;99.90;;;;;;4971585;28;20042;-41
2022/05/21 09:49:39;;;;;;;10.68;2.45;;;15.40;99.90;;;;;;4986717;28;20132;-41
2022/05/21 09:52:08;;;;;;;12.35;2.42;;;15.40;99.90;;;;;;4984526;28;20121;-41
2022/05/21 09:54:40;;;;;;;9.13;2.08;;;15.40;99.90;;;;;;4989244;28;20832;-41
2022/05/21 09:57:21;;;;;;;9.10;2.63;;;15.50;99.90;;;;;;4970679;28;20050;-43
2022/05/21 10:00:11;;;;;;;8.77;2.35;;;15.50;99.90;;;;;;4987473;28;20038;-41
2022/05/21 10:03:08;;;;;;;12.20;2.47;;;15.60;99.90;;;;;;4982309;28;20073;-41
2022/05/21 10:05:54;;;;;;;9.25;2.28;;;15.60;99.90;;;;;;4983744;28;20057;-41
2022/05/21 10:11:21;;;;;;;9.68;2.72;;;15.60;99.90;;;;;;4987425;28;20053;-41
2022/05/21 10:13:59;;;;;;;11.80;2.50;;;15.60;99.90;;;;;;4979075;28;20473;-41
2022/05/21 10:16:40;;;;;;;10.63;2.90;;;15.60;99.90;;;;;;4965075;28;20335;-41
2022/05/21 10:19:15;;;;;;;8.48;2.60;;;15.70;99.90;;;;;;4977257;28;20194;-42
2022/05/21 10:22:14;;;;;;;13.95;2.42;;;15.70;99.90;;;;;;4977869;28;20047;-42
2022/05/21 10:24:46;;;;;;;9.32;2.30;;;15.70;99.90;;;;;;4976730;28;20134;-42
2022/05/21 10:27:49;;;;;;;14.88;2.58;;;15.80;99.90;;;;;;4958141;28;20057;-42
2022/05/21 10:30:41;;;;;;;10.45;2.40;;;15.90;99.90;;;;;;4974828;28;20410;-42
2022/05/21 10:33:29;;;;;;;14.38;2.67;;;15.90;99.90;;;;;;4972223;28;20058;-42
2022/05/21 10:36:39;;;;;;;12.52;2.50;;;15.90;99.90;;;;;;4980185;28;20094;-42
2022/05/21 10:39:35;;;;;;;10.60;2.50;;;15.90;99.90;;;;;;4987408;28;20050;-42
2022/05/21 10:42:24;;;;;;;13.85;2.83;;;16.00;99.90;;;;;;4978770;28;20276;-42
2022/05/21 10:45:01;;;;;;;13.02;3.08;;;16.00;99.90;;;;;;4981730;28;20137;-42
2022/05/21 10:47:58;;;;;;;10.15;2.58;;;16.00;99.90;;;;;;4968088;28;20096;-44
2022/05/21 10:51:03;;;;;;;11.60;2.22;;;16.10;99.90;;;;;;4983990;28;20054;-42
2022/05/21 10:54:01;;;;;;;6.72;1.65;;;16.20;99.90;;;;;;4966556;28;20073;-42
2022/05/21 10:56:45;;;;;;;10.85;2.33;;;16.30;99.90;;;;;;4972798;28;20740;-42
2022/05/21 10:59:25;;;;;;;7.93;1.90;;;16.30;99.90;;;;;;4981897;28;20066;-42
2022/05/21 11:02:05;;;;;;;6.45;2.00;;;16.30;99.90;;;;;;4973621;28;20077;-42
2022/05/21 11:04:45;;;;;;;12.88;2.28;;;16.20;99.90;;;;;;4962983;28;20069;-42
2022/05/21 11:07:54;;;;;;;8.18;1.90;;;16.10;99.90;;;;;;4947621;28;20050;-41
2022/05/21 11:10:38;;;;;;;7.82;1.83;;;16.20;99.90;;;;;;4954305;28;20058;-42
2022/05/21 11:13:21;;;;;;;5.88;1.52;;;16.20;99.90;;;;;;4964681;28;20140;-41
2022/05/21 11:16:00;;;;;;;7.07;1.77;;;16.30;99.90;;;;;;4961063;28;20569;-41
2022/05/21 11:18:51;;;;;;;10.98;2.30;;;16.40;99.90;;;;;;4920547;28;20476;-41
2022/05/21 11:21:41;;;;;;;11.70;1.92;;;16.40;99.90;;;;;;4964084;28;20066;-42
2022/05/21 11:24:38;;;;;;;7.40;2.10;;;16.40;99.90;;;;;;4962952;28;20059;-41
2022/05/21 11:27:13;;;;;;;9.63;1.98;;;16.50;99.90;;;;;;4944679;28;20055;-41
2022/05/21 11:29:43;;;;;;;10.57;2.90;;;16.50;99.90;;;;;;4949131;28;20498;-41
2022/05/21 11:38:04;;;;;;;12.15;2.50;;;16.50;99.90;;;;;;4942606;28;20137;-41
2022/05/21 11:46:45;;;;;;;13.80;2.80;;;16.70;99.90;;;;;;4942348;28;20054;-41
2022/05/21 11:49:34;;;;;;;11.15;2.45;;;16.80;99.90;;;;;;4962185;28;20050;-41
2022/05/21 11:52:25;;;;;;;13.15;2.67;;;16.90;99.90;;;;;;4958269;28;20097;-42
2022/05/21 11:54:51;;;;;;;10.13;2.45;;;17.10;99.90;;;;;;4966697;28;20065;-41
2022/05/21 11:57:37;;;;;;;9.70;1.85;;;17.10;99.90;;;;;;4938362;28;20046;-42
2022/05/21 12:00:29;;;;;;;11.00;2.55;;;17.10;99.90;;;;;;4961672;28;20061;-41
2022/05/21 12:02:54;;;;;;;;;;;17.10;99.90;;;;;;4951003;28;20173;-41
2022/05/21 12:05:37;;;;;;;9.00;2.67;;;17.20;99.90;;;;;;4959084;28;19931;-41
2022/05/21 12:08:15;;;;;;;10.40;2.22;;;17.30;99.90;;;;;;4937262;28;20526;-41
2022/05/21 12:11:06;;;;;;;9.95;2.05;;;17.30;99.90;;;;;;4962235;28;20046;-41
2022/05/21 12:13:35;;;;;;;9.00;2.00;;;17.40;99.90;;;;;;4958782;28;20113;-41
2022/05/21 12:16:20;;;;;;;9.70;2.35;;;17.50;99.90;;;;;;4968135;28;20050;-41
2022/05/21 12:18:46;;;;;;;9.68;1.92;;;17.60;99.90;;;;;;4957785;28;20050;-41
2022/05/21 12:21:27;;;;;;;7.03;2.22;;;17.70;99.90;;;;;;4961340;28;20108;-41
2022/05/21 12:23:55;;;;;;;11.52;2.17;;;17.80;99.90;;;;;;4968579;28;20058;-41
2022/05/21 12:26:34;;;;;;;7.90;2.25;;;17.90;99.90;;;;;;4948604;28;20050;-42
2022/05/21 12:29:09;;;;;;;9.02;1.90;;;17.90;99.90;;;;;;4967539;28;20050;-42
2022/05/21 12:31:47;;;;;;;9.35;1.98;;;17.90;99.90;;;;;;4960745;28;20050;-42
2022/05/21 12:34:22;;;;;;;9.05;1.88;;;18.00;99.90;;;;;;4964459;28;20053;-41
2022/05/21 12:37:05;;;;;;;6.55;1.65;;;18.10;99.90;;;;;;4955229;28;20066;-41
2022/05/21 12:39:44;;;;;;;5.97;1.52;;;18.10;99.90;;;;;;4961491;28;20148;-42
2022/05/21 12:42:53;;;;;;;7.80;1.95;;;18.10;99.90;;;;;;4963336;28;20175;-42
2022/05/21 12:45:42;;;;;;;8.27;1.55;;;18.10;99.90;;;;;;4969867;28;20771;-41
2022/05/21 12:48:23;;;;;;;8.27;1.65;;;18.10;99.90;;;;;;4948715;28;20046;-42
2022/05/21 12:51:00;;;;;;;6.55;1.40;;;18.10;99.90;;;;;;4961845;28;20058;-42
2022/05/21 12:53:39;;;;;;;7.68;1.40;;;18.10;99.90;;;;;;4959064;28;20054;-42
2022/05/21 12:56:18;;;;;;;6.38;1.35;;;18.10;99.90;;;;;;4960233;28;20204;-41
2022/05/21 12:58:44;;;;;;;6.63;1.30;;;18.10;99.90;;;;;;4956336;28;20209;-42
2022/05/21 13:01:22;;;;;;;4.60;1.27;;;17.90;99.90;;;;;;4959131;28;20062;-41
2022/05/21 13:03:48;;;;;;;6.88;1.67;;;17.90;99.90;;;;;;4950995;28;20046;-42
2022/05/21 13:06:21;;;;;;;6.72;1.27;;;17.90;99.90;;;;;;4959968;28;20077;-41
2022/05/21 13:08:50;;;;;;;4.68;1.02;;;18.00;99.90;;;;;;4965167;28;20043;-41
2022/05/21 13:11:29;;;;;;;5.65;1.38;;;18.00;99.90;;;;;;4966544;28;20062;-41
2022/05/21 13:14:00;;;;;;;5.60;1.42;;;18.10;99.90;;;;;;4965222;28;20054;-42
2022/05/21 13:16:27;;;;;;;7.68;1.30;;;18.20;99.90;;;;;;4940650;28;20133;-42
2022/05/21 13:18:56;;;;;;;7.13;1.52;;;18.40;99.90;;;;;;4965137;28;20132;-41
2022/05/21 13:21:55;;;;;;;5.97;1.15;;;18.40;99.90;;;;;;4961492;28;20069;-42
2022/05/21 13:25:02;;;;;;;7.00;1.67;;;18.40;99.90;;;;;;4955607;28;20062;-41
2022/05/21 13:27:28;;;;;;;7.15;1.48;;;18.30;99.90;;;;;;4952555;28;20065;-42
2022/05/21 13:29:54;;;;;;;8.10;1.70;;;18.30;99.90;;;;;;4958904;28;20050;-41
2022/05/21 13:32:29;;;;;;;6.88;1.42;;;18.40;99.90;;;;;;4959022;28;20794;-41
2022/05/21 13:35:00;;;;;;;8.25;1.75;;;18.40;99.90;;;;;;4965531;28;21321;-41